Time;durP1;ratioP1;P1;durP2;ratioP2;P2;SDS_P1;SDS_P2;PMS_P1;PMS_P2;Temp;Humidity;BMP_temperature;BMP_pressure;BME280_temperature;BME280_humidity;BME280_pressure;Samples;Min_cycle;Max_cycle;Signal;HPM_P1;HPM_P2
2023/05/04 00:00:44;;;;;;;5.65;2.03;;;12.40;99.90;;;;;;5076849;28;20036;-76
2023/05/04 00:03:09;;;;;;;4.13;1.80;;;12.30;99.90;;;;;;5076029;28;20360;-77
2023/05/04 00:05:35;;;;;;;4.18;2.10;;;12.30;99.90;;;;;;5076649;28;20040;-77
2023/05/04 00:08:00;;;;;;;4.15;2.03;;;12.40;99.90;;;;;;5058061;28;20021;-78
2023/05/04 00:10:26;;;;;;;3.88;1.98;;;12.40;99.90;;;;;;5058020;28;20098;-77
2023/05/04 00:12:53;;;;;;;2.28;1.88;;;12.40;99.90;;;;;;5058020;28;20036;-77
2023/05/04 00:15:18;;;;;;;2.38;1.80;;;12.40;99.90;;;;;;5057859;28;20388;-77
2023/05/04 00:17:44;;;;;;;3.15;2.00;;;12.40;99.90;;;;;;5058196;28;20028;-76
2023/05/04 00:20:10;;;;;;;4.63;1.95;;;12.40;99.90;;;;;;5057787;28;20029;-77
2023/05/04 00:22:36;;;;;;;5.40;2.20;;;12.40;99.90;;;;;;5075715;28;20107;-76
2023/05/04 00:25:01;;;;;;;3.53;2.10;;;12.40;99.90;;;;;;5057826;28;20056;-76
2023/05/04 00:27:27;;;;;;;3.70;2.30;;;12.40;99.90;;;;;;5057529;28;20031;-76
2023/05/04 00:29:53;;;;;;;3.25;2.15;;;12.40;99.90;;;;;;5076043;28;20097;-76
2023/05/04 00:32:18;;;;;;;4.85;2.25;;;12.40;99.90;;;;;;5075067;28;20043;-76
2023/05/04 00:34:44;;;;;;;4.85;2.20;;;12.40;99.90;;;;;;5075306;28;20028;-75
2023/05/04 00:37:10;;;;;;;3.75;2.13;;;12.40;99.90;;;;;;5057174;28;20381;-76
2023/05/04 00:39:35;;;;;;;3.97;2.30;;;12.30;99.90;;;;;;5057777;28;20039;-75
2023/05/04 00:42:01;;;;;;;3.05;1.67;;;12.40;99.90;;;;;;5057640;28;20036;-75
2023/05/04 00:44:27;;;;;;;3.08;1.90;;;12.30;99.90;;;;;;5075113;28;20052;-75
2023/05/04 00:46:53;;;;;;;3.83;1.83;;;12.30;99.90;;;;;;5075551;28;20059;-76
2023/05/04 00:49:20;;;;;;;2.83;2.03;;;12.30;99.90;;;;;;5057098;28;20024;-75
2023/05/04 00:51:47;;;;;;;6.53;1.90;;;12.30;99.90;;;;;;5057563;28;20020;-75
2023/05/04 00:54:18;;;;;;;4.25;2.00;;;12.30;99.90;;;;;;5074603;28;20080;-76
2023/05/04 00:56:44;;;;;;;3.08;2.00;;;12.30;99.90;;;;;;5075506;28;20020;-76
2023/05/04 00:59:12;;;;;;;7.63;2.50;;;12.20;99.90;;;;;;5056832;28;20040;-76
2023/05/04 01:01:38;;;;;;;4.40;2.70;;;12.20;99.90;;;;;;5057146;28;20036;-75
2023/05/04 01:04:04;;;;;;;6.68;2.22;;;12.10;99.90;;;;;;5057312;28;20028;-76
2023/05/04 01:06:34;;;;;;;3.47;2.25;;;12.10;99.90;;;;;;5056657;28;20060;-75
2023/05/04 01:09:18;;;;;;;3.13;2.08;;;12.10;99.90;;;;;;5057363;28;20070;-76
2023/05/04 01:11:53;;;;;;;4.32;2.33;;;12.00;99.90;;;;;;5075079;28;20051;-76
2023/05/04 01:14:20;;;;;;;4.15;2.20;;;12.00;99.90;;;;;;5074565;28;20027;-76
2023/05/04 01:16:46;;;;;;;2.85;2.28;;;12.00;99.90;;;;;;5057011;28;20492;-76
2023/05/04 01:19:12;;;;;;;4.35;2.10;;;12.00;99.90;;;;;;5056564;28;20029;-75
2023/05/04 01:21:38;;;;;;;3.30;2.15;;;11.90;99.90;;;;;;5057389;28;20039;-76
2023/05/04 01:24:05;;;;;;;5.22;2.30;;;11.90;99.90;;;;;;5075052;28;20017;-77
2023/05/04 01:26:37;;;;;;;4.90;1.92;;;11.90;99.90;;;;;;5057156;28;20405;-76
2023/05/04 01:29:03;;;;;;;3.88;2.40;;;11.80;99.90;;;;;;5057029;28;20427;-77
2023/05/04 01:31:30;;;;;;;4.15;2.30;;;11.80;99.90;;;;;;5074695;28;20140;-77
2023/05/04 01:33:56;;;;;;;3.25;2.17;;;11.70;99.90;;;;;;5075071;28;20037;-77
2023/05/04 01:36:22;;;;;;;4.45;2.13;;;11.70;99.90;;;;;;5056343;28;20029;-77
2023/05/04 01:38:48;;;;;;;3.30;2.30;;;11.70;99.90;;;;;;5074339;28;20029;-76
2023/05/04 01:41:14;;;;;;;5.57;2.42;;;11.70;99.90;;;;;;5073675;28;20040;-75
2023/05/04 01:43:40;;;;;;;4.03;2.13;;;11.70;99.90;;;;;;5074085;28;20457;-76
2023/05/04 01:46:06;;;;;;;5.57;2.15;;;11.70;99.90;;;;;;5056105;28;20070;-76
2023/05/04 01:48:31;;;;;;;5.28;2.10;;;11.70;99.90;;;;;;5074103;28;20032;-76
2023/05/04 01:50:57;;;;;;;3.50;2.20;;;11.70;99.90;;;;;;5073530;28;20056;-77
2023/05/04 01:53:22;;;;;;;4.13;2.30;;;11.70;99.90;;;;;;5073063;28;20060;-75
2023/05/04 01:55:48;;;;;;;6.60;2.42;;;11.70;99.90;;;;;;5056265;28;20077;-76
2023/05/04 01:58:14;;;;;;;3.80;2.22;;;11.60;99.90;;;;;;5055447;28;20474;-76
2023/05/04 02:00:39;;;;;;;3.78;2.22;;;11.60;99.90;;;;;;5073997;28;20032;-75
2023/05/04 02:03:05;;;;;;;4.20;1.98;;;11.60;99.90;;;;;;5055993;28;20496;-76
2023/05/04 02:05:30;;;;;;;6.55;2.22;;;11.50;99.90;;;;;;5055691;28;20480;-76
2023/05/04 02:07:56;;;;;;;7.03;2.50;;;11.40;99.90;;;;;;5073903;28;20033;-75
2023/05/04 02:10:22;;;;;;;5.43;2.50;;;11.40;99.90;;;;;;5055630;28;20039;-76
2023/05/04 02:12:47;;;;;;;6.55;2.53;;;11.40;99.90;;;;;;5056090;28;20131;-75
2023/05/04 02:15:13;;;;;;;2.70;1.92;;;11.40;99.90;;;;;;5055535;28;20458;-76
2023/05/04 02:17:39;;;;;;;4.07;2.25;;;11.40;99.90;;;;;;5056390;28;20021;-76
2023/05/04 02:20:05;;;;;;;4.47;2.30;;;11.40;99.90;;;;;;5056141;28;20508;-75
2023/05/04 02:22:31;;;;;;;3.80;2.45;;;11.40;99.90;;;;;;5055051;28;20025;-76
2023/05/04 02:24:56;;;;;;;6.30;2.33;;;11.40;99.90;;;;;;5055931;28;20028;-76
2023/05/04 02:27:22;;;;;;;3.63;2.40;;;11.30;99.90;;;;;;5055758;28;20033;-76
2023/05/04 02:29:48;;;;;;;6.20;2.72;;;11.30;99.90;;;;;;5055955;28;20146;-76
2023/05/04 02:32:13;;;;;;;3.90;1.77;;;11.40;99.90;;;;;;5055300;28;20473;-76
2023/05/04 02:34:39;;;;;;;4.07;2.78;;;11.30;99.90;;;;;;5056068;28;20028;-76
2023/05/04 02:37:04;;;;;;;4.18;2.28;;;11.30;99.90;;;;;;5055744;28;20028;-76
2023/05/04 02:39:30;;;;;;;4.70;2.33;;;11.20;99.90;;;;;;5073483;28;20024;-75
2023/05/04 02:41:55;;;;;;;4.82;2.38;;;11.20;99.90;;;;;;5055426;28;20452;-75
2023/05/04 02:44:21;;;;;;;4.07;2.40;;;11.30;99.90;;;;;;5055023;28;20367;-75
2023/05/04 02:46:47;;;;;;;5.00;2.30;;;11.20;99.90;;;;;;5073084;28;20099;-75
2023/05/04 02:49:12;;;;;;;3.97;2.40;;;11.20;99.90;;;;;;5073046;28;20116;-76
2023/05/04 02:51:38;;;;;;;3.97;2.40;;;11.10;99.90;;;;;;5073335;28;20028;-75
2023/05/04 02:54:03;;;;;;;6.18;2.65;;;11.10;99.90;;;;;;5073532;28;20021;-75
2023/05/04 02:56:29;;;;;;;6.78;2.50;;;11.10;99.90;;;;;;5054940;28;20520;-75
2023/05/04 02:58:54;;;;;;;5.28;2.50;;;11.10;99.90;;;;;;5055278;28;20052;-75
2023/05/04 03:01:20;;;;;;;3.90;2.30;;;11.00;99.90;;;;;;5072583;28;20029;-75
2023/05/04 03:03:46;;;;;;;4.45;2.55;;;11.00;99.90;;;;;;5072120;28;20079;-76
2023/05/04 03:06:11;;;;;;;3.38;2.40;;;11.00;99.90;;;;;;5054965;28;20024;-76
2023/05/04 03:08:37;;;;;;;4.57;2.40;;;11.00;99.90;;;;;;5054860;28;20025;-75
2023/05/04 03:11:03;;;;;;;3.65;2.30;;;11.00;99.90;;;;;;5072590;28;20055;-75
2023/05/04 03:13:28;;;;;;;4.20;2.45;;;11.00;99.90;;;;;;5054454;28;20128;-76
2023/05/04 03:15:54;;;;;;;4.07;2.60;;;10.90;99.90;;;;;;5055047;28;20424;-75
2023/05/04 03:18:19;;;;;;;4.00;2.38;;;10.90;99.90;;;;;;5072663;28;20035;-77
2023/05/04 03:20:45;;;;;;;6.28;2.67;;;10.90;99.90;;;;;;5055547;28;20465;-76
2023/05/04 03:23:11;;;;;;;4.80;2.30;;;10.90;99.90;;;;;;5073240;28;20032;-76
2023/05/04 03:25:36;;;;;;;4.10;2.65;;;10.80;99.90;;;;;;5072746;28;20032;-76
2023/05/04 03:28:02;;;;;;;4.28;2.50;;;10.80;99.90;;;;;;5072675;28;20051;-76
2023/05/04 03:30:27;;;;;;;5.70;3.00;;;10.80;99.90;;;;;;5054467;28;20024;-76
2023/05/04 03:32:53;;;;;;;6.60;2.60;;;10.60;99.90;;;;;;5054941;28;20040;-75
2023/05/04 03:35:19;;;;;;;4.95;2.80;;;10.50;99.90;;;;;;5054365;28;20025;-75
2023/05/04 03:37:44;;;;;;;6.90;2.75;;;10.50;99.90;;;;;;5055146;28;20024;-76
2023/05/04 03:40:10;;;;;;;4.50;2.88;;;10.50;99.90;;;;;;5054726;28;20032;-75
2023/05/04 03:42:37;;;;;;;4.93;2.53;;;10.50;99.90;;;;;;5054599;28;20033;-75
2023/05/04 03:45:02;;;;;;;4.10;2.40;;;10.50;99.90;;;;;;5072623;28;20146;-75
2023/05/04 03:47:28;;;;;;;11.23;2.90;;;10.40;99.90;;;;;;5054162;28;20068;-75
2023/05/04 03:49:54;;;;;;;3.95;2.70;;;10.40;99.90;;;;;;5072462;28;20025;-75
2023/05/04 03:52:19;;;;;;;4.93;3.17;;;10.50;99.90;;;;;;5071769;28;20029;-76
2023/05/04 03:54:45;;;;;;;3.78;2.78;;;10.40;99.90;;;;;;5072480;28;20068;-75
2023/05/04 03:57:10;;;;;;;4.85;2.95;;;10.40;99.90;;;;;;5055057;28;20025;-75
2023/05/04 03:59:36;;;;;;;4.55;2.50;;;10.40;99.90;;;;;;5071535;28;20779;-75
2023/05/04 04:02:01;;;;;;;4.80;2.90;;;10.50;99.90;;;;;;5055133;28;20033;-75
2023/05/04 04:04:27;;;;;;;5.82;2.85;;;10.50;99.90;;;;;;5071899;28;20116;-75
2023/05/04 04:06:52;;;;;;;4.55;2.88;;;10.50;99.90;;;;;;5054812;28;20457;-75
2023/05/04 04:09:18;;;;;;;5.78;3.03;;;10.50;99.90;;;;;;5053864;28;20120;-76
2023/05/04 04:11:44;;;;;;;7.18;2.70;;;10.50;99.90;;;;;;5054728;28;20036;-76
2023/05/04 04:14:10;;;;;;;4.20;2.90;;;10.50;99.90;;;;;;5056356;28;20494;-75
2023/05/04 04:16:36;;;;;;;4.93;2.83;;;10.50;99.90;;;;;;5057925;28;20545;-75
2023/05/04 04:19:01;;;;;;;4.40;3.13;;;10.60;99.90;;;;;;5058240;28;20036;-76
2023/05/04 04:21:27;;;;;;;4.88;3.50;;;10.70;99.90;;;;;;5075631;28;20036;-76
2023/05/04 04:23:53;;;;;;;4.47;2.92;;;10.80;99.90;;;;;;5058086;28;20039;-76
2023/05/04 04:26:20;;;;;;;4.03;2.85;;;10.70;99.90;;;;;;5057544;28;20032;-76
2023/05/04 04:28:49;;;;;;;5.70;2.88;;;10.70;99.90;;;;;;5058036;28;20053;-76
2023/05/04 04:31:19;;;;;;;4.72;3.45;;;10.80;99.90;;;;;;5058346;28;20039;-76
2023/05/04 04:33:46;;;;;;;6.32;3.20;;;10.80;99.90;;;;;;5075651;28;20028;-75
2023/05/04 04:36:15;;;;;;;5.53;2.90;;;10.80;99.90;;;;;;5057803;28;20024;-75
2023/05/04 04:38:41;;;;;;;4.60;3.05;;;10.80;99.90;;;;;;5057338;28;20492;-75
2023/05/04 04:41:07;;;;;;;4.97;2.95;;;10.90;99.90;;;;;;5058118;28;20090;-76
2023/05/04 04:43:32;;;;;;;4.40;2.72;;;10.90;99.90;;;;;;5057374;28;20474;-75
2023/05/04 04:45:58;;;;;;;6.50;3.42;;;10.90;99.90;;;;;;5057696;28;20092;-75
2023/05/04 04:48:24;;;;;;;4.38;2.83;;;10.90;99.90;;;;;;5075147;28;20024;-76
2023/05/04 04:50:50;;;;;;;7.30;3.20;;;10.90;99.90;;;;;;5076024;28;20374;-77
2023/05/04 04:53:16;;;;;;;6.05;3.25;;;10.90;99.90;;;;;;5057546;28;20037;-76
2023/05/04 04:55:42;;;;;;;3.92;3.05;;;11.00;99.90;;;;;;5075020;28;20458;-77
2023/05/04 04:58:08;;;;;;;6.05;3.10;;;10.90;99.90;;;;;;5057543;28;20033;-77
2023/05/04 05:00:34;;;;;;;5.93;2.92;;;10.90;99.90;;;;;;5074957;28;20476;-77
2023/05/04 05:03:00;;;;;;;4.13;3.00;;;10.90;99.90;;;;;;5075062;28;20031;-76
2023/05/04 05:05:26;;;;;;;5.97;3.35;;;11.00;99.90;;;;;;5074184;28;20028;-75
2023/05/04 05:07:52;;;;;;;3.80;2.70;;;11.00;99.90;;;;;;5074365;28;20020;-76
2023/05/04 05:10:18;;;;;;;6.10;3.08;;;10.90;99.90;;;;;;5073091;28;20461;-76
2023/05/04 05:12:44;;;;;;;7.68;3.28;;;10.90;99.90;;;;;;5056999;28;20036;-76
2023/05/04 05:15:09;;;;;;;4.75;3.20;;;10.90;99.90;;;;;;5074656;28;20048;-76
2023/05/04 05:17:36;;;;;;;5.43;3.10;;;10.90;99.90;;;;;;5073910;28;20060;-76
2023/05/04 05:20:06;;;;;;;5.88;3.53;;;11.00;99.90;;;;;;5073599;28;20461;-76
2023/05/04 05:22:32;;;;;;;8.05;3.33;;;10.90;99.90;;;;;;5056173;28;20024;-76
2023/05/04 05:24:57;;;;;;;6.10;2.95;;;10.90;99.90;;;;;;5056677;28;20536;-76
2023/05/04 05:27:23;;;;;;;5.57;2.90;;;11.00;99.90;;;;;;5055670;28;20036;-75
2023/05/04 05:29:49;;;;;;;5.55;2.95;;;11.00;99.90;;;;;;5056109;28;20059;-76
2023/05/04 05:32:14;;;;;;;4.28;3.30;;;11.00;99.90;;;;;;5055728;28;20036;-75
2023/05/04 05:34:41;;;;;;;8.50;3.20;;;11.00;99.90;;;;;;5055716;28;20039;-75
2023/05/04 05:37:06;;;;;;;7.68;3.72;;;11.00;99.90;;;;;;5056306;28;20025;-76
2023/05/04 05:39:33;;;;;;;8.18;3.40;;;11.00;99.90;;;;;;5056117;28;20025;-77
2023/05/04 05:41:58;;;;;;;4.70;3.13;;;11.20;99.90;;;;;;5074607;28;20377;-76
2023/05/04 05:44:24;;;;;;;5.57;3.20;;;11.10;99.90;;;;;;5055838;28;20027;-76
2023/05/04 05:46:50;;;;;;;5.47;3.75;;;11.20;99.90;;;;;;5057078;28;20028;-76
2023/05/04 05:49:15;;;;;;;8.77;3.95;;;11.20;99.90;;;;;;5074439;28;20527;-76
2023/05/04 05:51:41;;;;;;;4.85;3.47;;;11.30;99.90;;;;;;5073947;28;20119;-76
2023/05/04 05:54:07;;;;;;;5.15;3.40;;;11.30;99.90;;;;;;5074234;28;20445;-76
2023/05/04 05:56:32;;;;;;;9.40;3.92;;;11.30;99.90;;;;;;5055634;28;20536;-76
2023/05/04 05:58:58;;;;;;;5.22;3.10;;;11.40;99.90;;;;;;5074273;28;20028;-76
2023/05/04 06:01:23;;;;;;;8.02;3.60;;;11.40;99.90;;;;;;5073115;28;20477;-77
2023/05/04 06:03:49;;;;;;;6.38;3.78;;;11.50;99.90;;;;;;5055967;28;20111;-76
2023/05/04 06:06:16;;;;;;;7.80;3.95;;;11.50;99.90;;;;;;5073818;28;20036;-76
2023/05/04 06:08:41;;;;;;;8.30;3.50;;;11.60;99.90;;;;;;5055749;28;20065;-77
2023/05/04 06:11:07;;;;;;;5.97;3.67;;;11.60;99.90;;;;;;5073484;28;20111;-75
2023/05/04 06:13:32;;;;;;;5.90;3.58;;;11.70;99.90;;;;;;5055281;28;20397;-75
2023/05/04 06:15:58;;;;;;;6.60;4.22;;;11.70;99.90;;;;;;5055652;28;20028;-77
2023/05/04 06:18:23;;;;;;;6.32;3.72;;;11.80;99.90;;;;;;5055131;28;20074;-77
2023/05/04 06:20:56;;;;;;;6.65;3.95;;;11.80;99.90;;;;;;5055467;28;20020;-76
2023/05/04 06:23:22;;;;;;;6.93;4.25;;;11.90;99.90;;;;;;5055162;28;20036;-79
2023/05/04 06:25:48;;;;;;;6.70;3.83;;;11.90;99.90;;;;;;5055350;28;20028;-76
2023/05/04 06:28:15;;;;;;;10.68;4.45;;;12.00;99.90;;;;;;5054895;28;20048;-76
2023/05/04 06:30:40;;;;;;;11.65;4.88;;;12.10;99.90;;;;;;5055230;28;20124;-77
2023/05/04 06:33:06;;;;;;;8.90;4.85;;;12.10;99.90;;;;;;5053089;28;20544;-78
2023/05/04 06:35:31;;;;;;;8.55;4.25;;;12.20;99.90;;;;;;5071275;28;20029;-77
2023/05/04 06:37:57;;;;;;;8.13;4.60;;;12.20;99.90;;;;;;5087031;28;20028;-78
2023/05/04 06:40:24;;;;;;;8.13;4.32;;;12.30;99.90;;;;;;5073097;28;20068;-79
2023/05/04 06:42:49;;;;;;;7.63;4.45;;;12.30;99.90;;;;;;5054037;28;20071;-78
2023/05/04 06:45:15;;;;;;;11.35;5.18;;;12.40;99.90;;;;;;5053957;28;20059;-77
2023/05/04 06:47:41;;;;;;;6.55;4.43;;;12.50;99.90;;;;;;5073966;28;20074;-76
2023/05/04 06:50:10;;;;;;;7.25;4.28;;;12.50;99.90;;;;;;5085856;28;20111;-75
2023/05/04 06:52:41;;;;;;;7.43;4.85;;;12.60;99.90;;;;;;5067944;28;20064;-75
2023/05/04 06:55:07;;;;;;;9.23;4.57;;;12.70;99.90;;;;;;5087162;28;20042;-75
2023/05/04 06:57:33;;;;;;;7.60;4.65;;;12.80;99.90;;;;;;5086344;28;20272;-75
2023/05/04 06:59:58;;;;;;;8.15;4.72;;;12.80;99.90;;;;;;5084645;28;20032;-76
2023/05/04 07:02:24;;;;;;;8.05;4.60;;;12.90;99.90;;;;;;5074816;28;20032;-79
2023/05/04 07:04:51;;;;;;;8.55;4.75;;;13.00;99.90;;;;;;5076219;28;20067;-75
2023/05/04 07:07:17;;;;;;;6.47;4.43;;;13.00;99.90;;;;;;5054871;28;20173;-76
2023/05/04 07:09:45;;;;;;;7.70;4.47;;;13.10;99.90;;;;;;5073603;28;20028;-76
2023/05/04 07:12:11;;;;;;;8.68;4.80;;;13.10;99.90;;;;;;5063031;28;20028;-74
2023/05/04 07:14:37;;;;;;;7.00;4.57;;;13.20;99.90;;;;;;5054443;28;20067;-74
2023/05/04 07:17:02;;;;;;;7.75;4.78;;;13.10;99.90;;;;;;5072774;28;20029;-73
2023/05/04 07:19:28;;;;;;;8.77;5.45;;;13.20;99.90;;;;;;5054572;28;20024;-74
2023/05/04 07:21:54;;;;;;;8.25;4.97;;;13.20;99.90;;;;;;5056304;28;20390;-74
2023/05/04 07:24:20;;;;;;;7.45;4.70;;;13.30;99.90;;;;;;5074198;28;20020;-74
2023/05/04 07:26:46;;;;;;;7.15;4.50;;;13.40;99.90;;;;;;5057798;28;20034;-74
2023/05/04 07:29:11;;;;;;;8.63;4.63;;;13.40;99.90;;;;;;5043291;28;20049;-75
2023/05/04 07:31:37;;;;;;;7.10;4.75;;;13.40;99.90;;;;;;5043360;28;20029;-74
2023/05/04 07:34:03;;;;;;;9.13;4.70;;;13.50;99.90;;;;;;5035484;28;20128;-74
2023/05/04 07:36:28;;;;;;;8.52;4.50;;;13.60;99.90;;;;;;5050974;28;20025;-75
2023/05/04 07:38:54;;;;;;;7.00;4.22;;;13.60;99.90;;;;;;5043960;28;20028;-75
2023/05/04 07:41:20;;;;;;;7.55;4.50;;;13.60;99.90;;;;;;5035959;28;20021;-76
2023/05/04 07:43:45;;;;;;;7.70;4.70;;;13.70;99.90;;;;;;5032278;28;20045;-76
2023/05/04 07:46:12;;;;;;;8.23;5.03;;;13.80;99.90;;;;;;5034824;28;20021;-76
2023/05/04 07:48:37;;;;;;;8.35;4.80;;;13.80;99.90;;;;;;5034044;28;20037;-76
2023/05/04 07:51:03;;;;;;;9.85;5.28;;;13.90;99.90;;;;;;5037695;28;20458;-76
2023/05/04 07:53:29;;;;;;;7.43;4.80;;;13.90;99.90;;;;;;5034818;28;20474;-75
2023/05/04 07:55:56;;;;;;;6.72;4.78;;;14.00;99.90;;;;;;5048711;28;20032;-76
2023/05/04 07:58:22;;;;;;;6.13;4.30;;;14.00;99.90;;;;;;5048926;28;20483;-76
2023/05/04 08:00:48;;;;;;;6.75;4.55;;;14.10;99.90;;;;;;5052030;28;20085;-75
2023/05/04 08:03:16;;;;;;;8.95;4.65;;;14.10;99.90;;;;;;5047364;28;20114;-75
2023/05/04 08:05:42;;;;;;;6.63;4.22;;;14.20;99.90;;;;;;5035866;28;20025;-75
2023/05/04 08:08:08;;;;;;;7.38;4.85;;;14.30;99.90;;;;;;5038877;28;20034;-75
2023/05/04 08:10:37;;;;;;;6.28;4.20;;;14.30;99.90;;;;;;5036148;28;20021;-75
2023/05/04 08:13:06;;;;;;;7.18;4.63;;;14.40;99.90;;;;;;5034997;28;20072;-74
2023/05/04 08:15:31;;;;;;;6.72;4.32;;;14.50;99.90;;;;;;5047827;28;20079;-76
2023/05/04 08:17:57;;;;;;;6.75;4.45;;;14.50;99.90;;;;;;5050495;28;20057;-75
2023/05/04 08:20:23;;;;;;;5.88;4.47;;;14.60;99.90;;;;;;5050945;28;20021;-75
2023/05/04 08:22:48;;;;;;;7.53;4.47;;;14.70;99.90;;;;;;5045084;28;20025;-75
2023/05/04 08:25:14;;;;;;;7.72;4.70;;;14.80;99.90;;;;;;5033599;28;20092;-75
2023/05/04 08:27:40;;;;;;;6.40;4.57;;;14.90;99.90;;;;;;5048480;28;20037;-75
2023/05/04 08:30:08;;;;;;;6.57;4.63;;;15.00;99.90;;;;;;5075943;28;20041;-75
2023/05/04 08:32:34;;;;;;;8.80;4.32;;;15.00;99.90;;;;;;5073570;28;20031;-75
2023/05/04 08:35:00;;;;;;;11.45;4.43;;;15.10;99.90;;;;;;5081750;28;20024;-75
2023/05/04 08:37:25;;;;;;;9.45;4.35;;;15.10;99.90;;;;;;5083375;28;20385;-76
2023/05/04 08:39:51;;;;;;;7.15;4.28;;;15.30;99.90;;;;;;5090603;28;20028;-75
2023/05/04 08:42:27;;;;;;;6.72;4.22;;;15.30;99.90;;;;;;5093985;28;20051;-75
2023/05/04 08:44:55;;;;;;;6.90;3.97;;;15.30;99.90;;;;;;5070530;28;20468;-76
2023/05/04 08:47:20;;;;;;;8.82;4.40;;;15.50;99.90;;;;;;5095105;28;20469;-76
2023/05/04 08:49:46;;;;;;;9.95;4.43;;;15.50;99.90;;;;;;5089736;28;20025;-77
2023/05/04 08:52:12;;;;;;;5.95;4.32;;;15.50;99.90;;;;;;5081499;28;20063;-77
2023/05/04 08:54:41;;;;;;;6.93;4.03;;;15.60;99.90;;;;;;5084526;28;20028;-76
2023/05/04 08:57:07;;;;;;;5.55;4.25;;;15.60;99.90;;;;;;5067760;28;20028;-77
2023/05/04 08:59:33;;;;;;;8.68;4.53;;;15.70;99.90;;;;;;5081492;28;20033;-76
2023/05/04 09:01:59;;;;;;;5.20;4.13;;;15.70;99.90;;;;;;5077848;28;20033;-76
2023/05/04 09:04:25;;;;;;;6.38;3.88;;;15.70;99.90;;;;;;5074646;28;20032;-76
2023/05/04 09:06:52;;;;;;;6.80;4.20;;;15.80;99.90;;;;;;5076076;28;20045;-77
2023/05/04 09:09:20;;;;;;;6.38;4.30;;;15.90;99.90;;;;;;5088918;28;20032;-76
2023/05/04 09:11:46;;;;;;;5.85;4.03;;;15.90;99.90;;;;;;5076110;28;20027;-76
2023/05/04 09:14:12;;;;;;;5.43;4.20;;;16.00;99.90;;;;;;5087856;28;20085;-76
2023/05/04 09:16:38;;;;;;;10.95;4.35;;;16.00;99.90;;;;;;5088047;28;20028;-75
2023/05/04 09:19:16;;;;;;;6.43;4.05;;;16.10;99.90;;;;;;5082848;28;20542;-77
2023/05/04 09:21:43;;;;;;;8.70;4.18;;;16.10;99.90;;;;;;5089004;28;20020;-77
2023/05/04 09:24:09;;;;;;;6.90;3.78;;;16.30;99.90;;;;;;5075241;28;20028;-76
2023/05/04 09:26:35;;;;;;;5.80;4.30;;;16.40;99.90;;;;;;5074023;28;20020;-76
2023/05/04 09:29:14;;;;;;;6.75;4.35;;;16.50;99.90;;;;;;5055966;28;20052;-76
2023/05/04 09:31:50;;;;;;;7.28;4.43;;;16.50;99.90;;;;;;5078978;28;20037;-76
2023/05/04 09:34:21;;;;;;;6.38;4.05;;;16.60;99.90;;;;;;5071854;28;20036;-74
2023/05/04 09:37:03;;;;;;;8.73;4.65;;;16.70;99.90;;;;;;5066871;28;20031;-74
2023/05/04 09:39:29;;;;;;;6.47;4.43;;;16.80;99.90;;;;;;5063988;28;20028;-77
2023/05/04 09:41:55;;;;;;;8.70;4.75;;;16.90;99.90;;;;;;5064676;28;20074;-75
2023/05/04 09:44:22;;;;;;;8.30;4.18;;;16.90;99.90;;;;;;5085585;28;20427;-74
2023/05/04 09:46:56;;;;;;;6.78;4.00;;;16.90;99.90;;;;;;5061557;28;20021;-74
2023/05/04 09:49:35;;;;;;;8.65;4.50;;;17.00;99.90;;;;;;5078547;28;20031;-74
2023/05/04 09:52:02;;;;;;;12.85;4.88;;;17.00;99.90;;;;;;5083603;28;20024;-75
2023/05/04 09:54:40;;;;;;;7.82;4.13;;;17.10;99.90;;;;;;5059816;28;20460;-76
2023/05/04 09:57:12;;;;;;;7.50;4.25;;;17.20;99.90;;;;;;5093298;28;20035;-75
2023/05/04 09:59:39;;;;;;;5.53;4.00;;;17.20;99.90;;;;;;5074664;28;20069;-75
2023/05/04 10:02:05;;;;;;;8.50;4.47;;;17.10;99.90;;;;;;5091353;28;20028;-74
2023/05/04 10:04:38;;;;;;;5.53;4.13;;;17.20;99.90;;;;;;5061378;28;20516;-77
2023/05/04 10:07:05;;;;;;;9.40;4.53;;;17.30;99.90;;;;;;5076678;28;20461;-77
2023/05/04 10:09:32;;;;;;;6.95;3.97;;;17.40;99.90;;;;;;5075486;28;20067;-78
2023/05/04 10:12:05;;;;;;;6.38;4.32;;;17.40;99.90;;;;;;5060017;28;20031;-78
2023/05/04 10:14:33;;;;;;;10.07;4.00;;;17.50;99.90;;;;;;5062664;28;20031;-77
2023/05/04 10:17:28;;;;;;;6.65;3.80;;;17.50;99.90;;;;;;5089662;28;20107;-78
2023/05/04 10:20:12;;;;;;;6.55;4.40;;;17.60;99.90;;;;;;5055480;28;20354;-76
2023/05/04 10:22:53;;;;;;;7.25;4.07;;;17.70;99.90;;;;;;5069641;28;20380;-76
2023/05/04 10:26:07;;;;;;;6.30;4.03;;;17.70;99.90;;;;;;5056724;28;20381;-79
2023/05/04 10:28:58;;;;;;;9.63;4.50;;;17.80;99.90;;;;;;4994105;28;20113;-80
2023/05/04 10:31:24;;;;;;;6.13;3.92;;;17.80;99.90;;;;;;5062374;28;20035;-82
2023/05/04 10:33:50;;;;;;;7.68;3.85;;;17.80;99.90;;;;;;5080245;28;20036;-78
2023/05/04 10:36:16;;;;;;;7.88;4.85;;;17.80;99.90;;;;;;5069122;28;20081;-77
2023/05/04 10:38:41;;;;;;;7.25;4.07;;;17.90;99.90;;;;;;5075528;28;20446;-77
2023/05/04 10:41:17;;;;;;;4.68;3.63;;;18.00;99.90;;;;;;5093373;28;20369;-78
2023/05/04 10:43:47;;;;;;;6.32;3.40;;;18.10;99.90;;;;;;5083149;28;20079;-77
2023/05/04 10:46:16;;;;;;;5.97;3.35;;;18.10;99.90;;;;;;5087518;28;20024;-77
2023/05/04 10:48:42;;;;;;;3.80;3.20;;;18.20;99.90;;;;;;5075978;28;20021;-77
2023/05/04 10:51:17;;;;;;;4.65;3.58;;;18.30;99.90;;;;;;5086781;28;20089;-77
2023/05/04 10:53:43;;;;;;;4.72;3.13;;;18.40;99.90;;;;;;5063943;28;20046;-77
2023/05/04 10:56:25;;;;;;;5.38;3.25;;;18.40;99.90;;;;;;5086175;28;20434;-78
2023/05/04 10:58:52;;;;;;;4.63;3.22;;;18.30;99.90;;;;;;5075562;28;20070;-78
2023/05/04 11:01:19;;;;;;;4.30;2.95;;;18.40;99.90;;;;;;5068378;28;20035;-77
2023/05/04 11:03:45;;;;;;;5.93;3.20;;;18.50;99.90;;;;;;5054329;28;20281;-78
2023/05/04 11:06:21;;;;;;;6.63;3.30;;;18.60;99.90;;;;;;5086152;28;20368;-78
2023/05/04 11:08:57;;;;;;;6.28;3.00;;;18.50;99.90;;;;;;5075383;28;20063;-78
2023/05/04 11:11:23;;;;;;;5.45;3.17;;;18.60;99.90;;;;;;5067630;28;20114;-77
2023/05/04 11:13:48;;;;;;;4.22;3.30;;;18.70;99.90;;;;;;5053734;28;20389;-77
2023/05/04 11:16:22;;;;;;;4.25;3.08;;;18.80;99.90;;;;;;5086958;28;20040;-78
2023/05/04 11:18:48;;;;;;;4.40;3.03;;;18.80;99.90;;;;;;5074369;28;20055;-78
2023/05/04 11:21:23;;;;;;;5.05;2.88;;;18.80;99.90;;;;;;5086050;28;20044;-78
2023/05/04 11:23:59;;;;;;;5.47;2.80;;;19.00;99.90;;;;;;5065786;28;20023;-77
2023/05/04 11:26:27;;;;;;;5.00;3.00;;;19.10;99.90;;;;;;5063198;28;20024;-77
2023/05/04 11:28:53;;;;;;;3.55;2.80;;;19.20;99.90;;;;;;5068422;28;20048;-79
2023/05/04 11:31:20;;;;;;;4.05;3.42;;;19.10;99.90;;;;;;5089942;28;20028;-77
2023/05/04 11:33:47;;;;;;;6.10;3.22;;;19.20;99.90;;;;;;5058029;28;20086;-77
2023/05/04 11:36:13;;;;;;;3.63;2.88;;;19.30;99.90;;;;;;5077026;28;20346;-77
2023/05/04 11:38:38;;;;;;;5.38;2.75;;;19.50;99.90;;;;;;5093213;28;20039;-77
2023/05/04 11:41:04;;;;;;;3.38;2.60;;;19.50;99.90;;;;;;5059125;28;20056;-77
2023/05/04 11:43:32;;;;;;;4.35;2.97;;;19.50;99.90;;;;;;5058435;28;20125;-81
2023/05/04 11:45:59;;;;;;;4.75;2.40;;;19.50;99.90;;;;;;5070508;28;20036;-78
2023/05/04 11:48:27;;;;;;;6.00;2.55;;;19.80;98.20;;;;;;5096672;28;20152;-76
2023/05/04 11:50:54;;;;;;;6.15;2.70;;;19.90;98.50;;;;;;5077248;28;20067;-76
2023/05/04 11:53:21;;;;;;;3.22;2.75;;;20.10;98.00;;;;;;5082731;28;20024;-76
2023/05/04 11:55:48;;;;;;;3.55;2.78;;;20.10;97.80;;;;;;5083652;28;20466;-76
2023/05/04 11:58:14;;;;;;;3.83;2.55;;;20.10;98.30;;;;;;5071977;28;20089;-76
2023/05/04 12:00:48;;;;;;;4.93;3.08;;;20.30;97.50;;;;;;5070052;28;20028;-76
2023/05/04 12:03:33;;;;;;;4.68;2.42;;;20.40;98.00;;;;;;5059221;28;20465;-76
2023/05/04 12:06:00;;;;;;;3.67;2.65;;;20.50;98.20;;;;;;5070405;28;20020;-76
2023/05/04 12:08:34;;;;;;;5.80;2.90;;;20.60;97.80;;;;;;5063157;28;20029;-76
2023/05/04 12:11:20;;;;;;;3.22;2.58;;;20.70;97.40;;;;;;5062457;28;20111;-76
2023/05/04 12:13:47;;;;;;;4.30;3.13;;;20.70;94.70;;;;;;5084449;28;20043;-77
2023/05/04 12:16:15;;;;;;;3.10;2.75;;;20.90;97.40;;;;;;5058589;28;20035;-77
2023/05/04 12:18:43;;;;;;;5.65;2.72;;;21.00;95.00;;;;;;5058933;28;20024;-76
2023/05/04 12:21:18;;;;;;;4.65;2.50;;;21.10;95.40;;;;;;5096452;28;20052;-75
2023/05/04 12:23:45;;;;;;;5.88;2.75;;;21.30;92.30;;;;;;5095989;28;20032;-77
2023/05/04 12:26:12;;;;;;;4.28;2.38;;;21.40;91.60;;;;;;5064530;28;20025;-76
2023/05/04 12:28:39;;;;;;;2.45;2.20;;;21.60;90.50;;;;;;5073819;28;20048;-75
2023/05/04 12:31:05;;;;;;;2.83;2.45;;;21.80;90.40;;;;;;5075268;28;20039;-76
2023/05/04 12:33:31;;;;;;;5.13;2.38;;;21.90;89.70;;;;;;5056657;28;20024;-80
2023/05/04 12:36:01;;;;;;;4.13;2.45;;;22.00;88.30;;;;;;5087460;28;20028;-76
2023/05/04 12:38:27;;;;;;;3.20;2.20;;;22.10;85.40;;;;;;5078083;28;20027;-76
2023/05/04 12:40:53;;;;;;;4.03;2.50;;;22.30;87.10;;;;;;5065514;28;20497;-81
2023/05/04 12:43:21;;;;;;;4.07;2.20;;;22.50;85.80;;;;;;5048067;28;20037;-74
2023/05/04 12:45:48;;;;;;;2.42;2.10;;;22.60;85.00;;;;;;5083446;28;20032;-77